sensor_id;sensor_type;location;lat;lon;timestamp;P1;durP1;ratioP1;P2;durP2;ratioP2
58681;SDS011;44460;40.162;18.294;2023-01-15T00:02:20;17.05;;;9.38;;
58681;SDS011;44460;40.162;18.294;2023-01-15T00:04:49;17.52;;;10.25;;
58681;SDS011;44460;40.162;18.294;2023-01-15T00:09:39;20.83;;;11.82;;
58681;SDS011;44460;40.162;18.294;2023-01-15T00:12:05;15.77;;;10.18;;
58681;SDS011;44460;40.162;18.294;2023-01-15T00:14:30;24.23;;;12.13;;
58681;SDS011;44460;40.162;18.294;2023-01-15T00:19:45;15.15;;;9.57;;
58681;SDS011;44460;40.162;18.294;2023-01-15T00:22:11;15.02;;;9.88;;
58681;SDS011;44460;40.162;18.294;2023-01-15T00:24:36;17.33;;;9.02;;
58681;SDS011;44460;40.162;18.294;2023-01-15T00:27:20;15.50;;;9.40;;
58681;SDS011;44460;40.162;18.294;2023-01-15T00:30:04;17.17;;;9.68;;
58681;SDS011;44460;40.162;18.294;2023-01-15T00:32:30;17.17;;;9.15;;
58681;SDS011;44460;40.162;18.294;2023-01-15T00:34:59;16.67;;;9.75;;
58681;SDS011;44460;40.162;18.294;2023-01-15T00:37:25;15.63;;;10.02;;
58681;SDS011;44460;40.162;18.294;2023-01-15T00:39:50;18.20;;;9.63;;
58681;SDS011;44460;40.162;18.294;2023-01-15T00:42:16;18.50;;;10.15;;
58681;SDS011;44460;40.162;18.294;2023-01-15T00:44:42;17.73;;;9.50;;
58681;SDS011;44460;40.162;18.294;2023-01-15T00:47:07;18.92;;;9.82;;
58681;SDS011;44460;40.162;18.294;2023-01-15T00:49:38;20.15;;;10.20;;
58681;SDS011;44460;40.162;18.294;2023-01-15T00:52:03;18.95;;;10.18;;
58681;SDS011;44460;40.162;18.294;2023-01-15T00:54:29;19.05;;;9.95;;
58681;SDS011;44460;40.162;18.294;2023-01-15T00:56:54;16.65;;;10.55;;
58681;SDS011;44460;40.162;18.294;2023-01-15T00:59:20;19.38;;;10.60;;
58681;SDS011;44460;40.162;18.294;2023-01-15T01:01:46;16.27;;;10.13;;
58681;SDS011;44460;40.162;18.294;2023-01-15T01:04:11;20.27;;;10.70;;
58681;SDS011;44460;40.162;18.294;2023-01-15T01:06:37;21.15;;;10.95;;
58681;SDS011;44460;40.162;18.294;2023-01-15T01:09:02;20.80;;;10.45;;
58681;SDS011;44460;40.162;18.294;2023-01-15T01:11:29;22.10;;;10.93;;
58681;SDS011;44460;40.162;18.294;2023-01-15T01:13:58;17.08;;;10.73;;
58681;SDS011;44460;40.162;18.294;2023-01-15T01:18:55;23.90;;;12.10;;
58681;SDS011;44460;40.162;18.294;2023-01-15T01:21:20;17.05;;;11.27;;
58681;SDS011;44460;40.162;18.294;2023-01-15T01:23:46;26.52;;;11.52;;
58681;SDS011;44460;40.162;18.294;2023-01-15T01:26:11;19.52;;;11.68;;
58681;SDS011;44460;40.162;18.294;2023-01-15T01:28:38;17.42;;;11.38;;
58681;SDS011;44460;40.162;18.294;2023-01-15T01:31:05;18.02;;;11.15;;
58681;SDS011;44460;40.162;18.294;2023-01-15T01:33:31;20.00;;;11.68;;
58681;SDS011;44460;40.162;18.294;2023-01-15T01:35:57;18.58;;;10.88;;
58681;SDS011;44460;40.162;18.294;2023-01-15T01:38:23;17.80;;;11.38;;
58681;SDS011;44460;40.162;18.294;2023-01-15T01:40:49;21.38;;;11.73;;
58681;SDS011;44460;40.162;18.294;2023-01-15T01:43:18;18.30;;;11.02;;
58681;SDS011;44460;40.162;18.294;2023-01-15T01:45:44;18.70;;;10.80;;
58681;SDS011;44460;40.162;18.294;2023-01-15T01:48:10;16.17;;;9.90;;
58681;SDS011;44460;40.162;18.294;2023-01-15T01:50:35;17.42;;;10.55;;
58681;SDS011;44460;40.162;18.294;2023-01-15T01:53:03;19.67;;;11.32;;
58681;SDS011;44460;40.162;18.294;2023-01-15T01:55:29;17.23;;;10.77;;
58681;SDS011;44460;40.162;18.294;2023-01-15T01:57:57;21.92;;;10.88;;
58681;SDS011;44460;40.162;18.294;2023-01-15T02:00:23;19.73;;;11.10;;
58681;SDS011;44460;40.162;18.294;2023-01-15T02:02:50;18.42;;;11.18;;
58681;SDS011;44460;40.162;18.294;2023-01-15T02:05:22;20.65;;;11.50;;
58681;SDS011;44460;40.162;18.294;2023-01-15T02:07:51;18.98;;;11.43;;
58681;SDS011;44460;40.162;18.294;2023-01-15T02:10:16;21.88;;;12.93;;
58681;SDS011;44460;40.162;18.294;2023-01-15T02:12:44;22.55;;;12.48;;
58681;SDS011;44460;40.162;18.294;2023-01-15T02:15:15;20.52;;;11.95;;
58681;SDS011;44460;40.162;18.294;2023-01-15T02:20:16;20.08;;;11.52;;
58681;SDS011;44460;40.162;18.294;2023-01-15T02:25:36;19.08;;;11.95;;
58681;SDS011;44460;40.162;18.294;2023-01-15T02:28:12;19.17;;;12.18;;
58681;SDS011;44460;40.162;18.294;2023-01-15T02:30:41;18.33;;;11.07;;
58681;SDS011;44460;40.162;18.294;2023-01-15T02:35:35;19.98;;;11.38;;
58681;SDS011;44460;40.162;18.294;2023-01-15T02:38:04;19.67;;;11.18;;
58681;SDS011;44460;40.162;18.294;2023-01-15T02:40:31;18.02;;;11.00;;
58681;SDS011;44460;40.162;18.294;2023-01-15T02:42:58;19.17;;;10.82;;
58681;SDS011;44460;40.162;18.294;2023-01-15T02:45:26;18.95;;;11.13;;
58681;SDS011;44460;40.162;18.294;2023-01-15T02:47:57;16.10;;;10.63;;
58681;SDS011;44460;40.162;18.294;2023-01-15T02:50:26;20.33;;;12.10;;
58681;SDS011;44460;40.162;18.294;2023-01-15T02:55:25;25.92;;;11.80;;
58681;SDS011;44460;40.162;18.294;2023-01-15T02:57:54;22.88;;;11.65;;
58681;SDS011;44460;40.162;18.294;2023-01-15T03:00:20;20.35;;;11.65;;
58681;SDS011;44460;40.162;18.294;2023-01-15T03:02:49;18.85;;;11.15;;
58681;SDS011;44460;40.162;18.294;2023-01-15T03:05:50;20.52;;;10.57;;
58681;SDS011;44460;40.162;18.294;2023-01-15T03:08:07;17.50;;;11.00;;
58681;SDS011;44460;40.162;18.294;2023-01-15T03:10:42;19.13;;;10.67;;
58681;SDS011;44460;40.162;18.294;2023-01-15T03:13:11;17.55;;;10.23;;
58681;SDS011;44460;40.162;18.294;2023-01-15T03:15:57;17.52;;;9.70;;
58681;SDS011;44460;40.162;18.294;2023-01-15T03:18:49;18.10;;;11.25;;
58681;SDS011;44460;40.162;18.294;2023-01-15T03:21:18;18.08;;;11.10;;
58681;SDS011;44460;40.162;18.294;2023-01-15T03:23:46;16.05;;;10.55;;
58681;SDS011;44460;40.162;18.294;2023-01-15T03:26:12;20.10;;;10.57;;
58681;SDS011;44460;40.162;18.294;2023-01-15T03:28:40;17.48;;;9.35;;
58681;SDS011;44460;40.162;18.294;2023-01-15T03:31:06;18.52;;;9.70;;
58681;SDS011;44460;40.162;18.294;2023-01-15T03:33:32;18.30;;;9.57;;
58681;SDS011;44460;40.162;18.294;2023-01-15T03:35:59;15.60;;;9.98;;
58681;SDS011;44460;40.162;18.294;2023-01-15T03:38:37;17.55;;;10.32;;
58681;SDS011;44460;40.162;18.294;2023-01-15T03:43:54;19.38;;;10.98;;
58681;SDS011;44460;40.162;18.294;2023-01-15T03:49:02;18.98;;;10.68;;
58681;SDS011;44460;40.162;18.294;2023-01-15T03:51:53;20.98;;;10.70;;
58681;SDS011;44460;40.162;18.294;2023-01-15T03:54:22;19.00;;;9.85;;
58681;SDS011;44460;40.162;18.294;2023-01-15T03:56:50;16.77;;;10.52;;
58681;SDS011;44460;40.162;18.294;2023-01-15T03:59:22;18.00;;;10.80;;
58681;SDS011;44460;40.162;18.294;2023-01-15T04:01:58;15.02;;;9.73;;
58681;SDS011;44460;40.162;18.294;2023-01-15T04:04:25;20.23;;;10.25;;
58681;SDS011;44460;40.162;18.294;2023-01-15T04:06:50;18.52;;;11.05;;
58681;SDS011;44460;40.162;18.294;2023-01-15T04:09:16;21.55;;;11.38;;
58681;SDS011;44460;40.162;18.294;2023-01-15T04:11:43;16.80;;;9.85;;
58681;SDS011;44460;40.162;18.294;2023-01-15T04:14:11;16.85;;;10.70;;
58681;SDS011;44460;40.162;18.294;2023-01-15T04:16:42;18.85;;;10.40;;
58681;SDS011;44460;40.162;18.294;2023-01-15T04:19:08;17.40;;;10.43;;
58681;SDS011;44460;40.162;18.294;2023-01-15T04:21:37;17.13;;;10.23;;
58681;SDS011;44460;40.162;18.294;2023-01-15T04:24:03;16.63;;;10.23;;
58681;SDS011;44460;40.162;18.294;2023-01-15T04:26:28;18.75;;;10.43;;
58681;SDS011;44460;40.162;18.294;2023-01-15T04:28:54;17.00;;;10.38;;
58681;SDS011;44460;40.162;18.294;2023-01-15T04:31:19;16.88;;;9.88;;
58681;SDS011;44460;40.162;18.294;2023-01-15T04:33:45;17.58;;;10.15;;
58681;SDS011;44460;40.162;18.294;2023-01-15T04:36:10;17.67;;;9.57;;
58681;SDS011;44460;40.162;18.294;2023-01-15T04:38:36;17.90;;;10.02;;
58681;SDS011;44460;40.162;18.294;2023-01-15T04:41:02;14.48;;;9.48;;
58681;SDS011;44460;40.162;18.294;2023-01-15T04:43:46;18.25;;;9.63;;
58681;SDS011;44460;40.162;18.294;2023-01-15T04:46:30;19.55;;;9.95;;
58681;SDS011;44460;40.162;18.294;2023-01-15T04:48:56;18.20;;;10.23;;
58681;SDS011;44460;40.162;18.294;2023-01-15T04:51:22;17.35;;;9.60;;
58681;SDS011;44460;40.162;18.294;2023-01-15T04:53:47;15.45;;;9.63;;
58681;SDS011;44460;40.162;18.294;2023-01-15T04:56:12;17.13;;;10.18;;
58681;SDS011;44460;40.162;18.294;2023-01-15T04:58:38;18.83;;;9.70;;
58681;SDS011;44460;40.162;18.294;2023-01-15T05:01:09;16.88;;;9.50;;
58681;SDS011;44460;40.162;18.294;2023-01-15T05:03:34;16.30;;;9.15;;
58681;SDS011;44460;40.162;18.294;2023-01-15T05:06:00;16.80;;;9.65;;
58681;SDS011;44460;40.162;18.294;2023-01-15T05:08:26;18.33;;;8.93;;
58681;SDS011;44460;40.162;18.294;2023-01-15T05:10:51;18.48;;;8.77;;
58681;SDS011;44460;40.162;18.294;2023-01-15T05:13:17;17.42;;;9.45;;
58681;SDS011;44460;40.162;18.294;2023-01-15T05:15:42;16.02;;;9.23;;
58681;SDS011;44460;40.162;18.294;2023-01-15T05:18:10;15.25;;;9.63;;
58681;SDS011;44460;40.162;18.294;2023-01-15T05:20:39;22.10;;;11.50;;
58681;SDS011;44460;40.162;18.294;2023-01-15T05:23:04;26.23;;;15.88;;
58681;SDS011;44460;40.162;18.294;2023-01-15T05:25:30;28.80;;;17.67;;
58681;SDS011;44460;40.162;18.294;2023-01-15T05:27:55;38.72;;;23.33;;
58681;SDS011;44460;40.162;18.294;2023-01-15T05:30:21;24.40;;;17.98;;
58681;SDS011;44460;40.162;18.294;2023-01-15T05:32:46;29.02;;;17.70;;
58681;SDS011;44460;40.162;18.294;2023-01-15T05:35:12;19.45;;;12.45;;
58681;SDS011;44460;40.162;18.294;2023-01-15T05:37:37;18.60;;;10.85;;
58681;SDS011;44460;40.162;18.294;2023-01-15T05:40:03;15.77;;;9.95;;
58681;SDS011;44460;40.162;18.294;2023-01-15T05:42:28;24.92;;;9.63;;
58681;SDS011;44460;40.162;18.294;2023-01-15T05:44:54;17.05;;;9.48;;
58681;SDS011;44460;40.162;18.294;2023-01-15T05:47:19;13.55;;;8.68;;
58681;SDS011;44460;40.162;18.294;2023-01-15T05:49:44;14.55;;;8.93;;
58681;SDS011;44460;40.162;18.294;2023-01-15T05:52:12;13.95;;;8.43;;
58681;SDS011;44460;40.162;18.294;2023-01-15T05:54:38;17.83;;;8.95;;
58681;SDS011;44460;40.162;18.294;2023-01-15T05:57:03;14.25;;;9.15;;
58681;SDS011;44460;40.162;18.294;2023-01-15T05:59:29;15.65;;;8.93;;
58681;SDS011;44460;40.162;18.294;2023-01-15T06:01:55;18.85;;;10.20;;
58681;SDS011;44460;40.162;18.294;2023-01-15T06:04:21;17.45;;;8.27;;
58681;SDS011;44460;40.162;18.294;2023-01-15T06:06:47;17.65;;;9.52;;
58681;SDS011;44460;40.162;18.294;2023-01-15T06:09:12;16.13;;;9.00;;
58681;SDS011;44460;40.162;18.294;2023-01-15T06:11:38;16.90;;;9.32;;
58681;SDS011;44460;40.162;18.294;2023-01-15T06:14:04;14.00;;;8.23;;
58681;SDS011;44460;40.162;18.294;2023-01-15T06:16:29;14.80;;;8.68;;
58681;SDS011;44460;40.162;18.294;2023-01-15T06:18:58;13.07;;;8.10;;
58681;SDS011;44460;40.162;18.294;2023-01-15T06:21:24;16.80;;;9.05;;
58681;SDS011;44460;40.162;18.294;2023-01-15T06:23:51;14.90;;;8.80;;
58681;SDS011;44460;40.162;18.294;2023-01-15T06:26:17;13.48;;;8.38;;
58681;SDS011;44460;40.162;18.294;2023-01-15T06:28:42;20.00;;;8.70;;
58681;SDS011;44460;40.162;18.294;2023-01-15T06:31:09;12.45;;;7.35;;
58681;SDS011;44460;40.162;18.294;2023-01-15T06:33:35;16.70;;;8.82;;
58681;SDS011;44460;40.162;18.294;2023-01-15T06:36:19;19.38;;;8.93;;
58681;SDS011;44460;40.162;18.294;2023-01-15T06:38:46;16.23;;;8.60;;
58681;SDS011;44460;40.162;18.294;2023-01-15T06:41:15;14.85;;;8.30;;
58681;SDS011;44460;40.162;18.294;2023-01-15T06:44:00;16.03;;;8.73;;
58681;SDS011;44460;40.162;18.294;2023-01-15T06:46:45;15.13;;;8.95;;
58681;SDS011;44460;40.162;18.294;2023-01-15T06:49:29;14.65;;;8.05;;
58681;SDS011;44460;40.162;18.294;2023-01-15T06:51:54;16.23;;;7.72;;
58681;SDS011;44460;40.162;18.294;2023-01-15T06:54:20;16.70;;;8.43;;
58681;SDS011;44460;40.162;18.294;2023-01-15T06:56:45;14.15;;;7.85;;
58681;SDS011;44460;40.162;18.294;2023-01-15T06:59:11;13.77;;;8.05;;
58681;SDS011;44460;40.162;18.294;2023-01-15T07:01:36;13.68;;;7.65;;
58681;SDS011;44460;40.162;18.294;2023-01-15T07:04:02;14.13;;;7.57;;
58681;SDS011;44460;40.162;18.294;2023-01-15T07:06:28;13.57;;;7.43;;
58681;SDS011;44460;40.162;18.294;2023-01-15T07:08:53;13.65;;;7.00;;
58681;SDS011;44460;40.162;18.294;2023-01-15T07:11:18;14.88;;;7.97;;
58681;SDS011;44460;40.162;18.294;2023-01-15T07:13:44;14.35;;;7.90;;
58681;SDS011;44460;40.162;18.294;2023-01-15T07:16:09;15.52;;;8.02;;
58681;SDS011;44460;40.162;18.294;2023-01-15T07:18:51;14.30;;;8.88;;
58681;SDS011;44460;40.162;18.294;2023-01-15T07:21:16;12.15;;;7.93;;
58681;SDS011;44460;40.162;18.294;2023-01-15T07:23:42;18.33;;;7.30;;
58681;SDS011;44460;40.162;18.294;2023-01-15T07:26:07;15.02;;;7.93;;
58681;SDS011;44460;40.162;18.294;2023-01-15T07:28:33;13.10;;;7.97;;
58681;SDS011;44460;40.162;18.294;2023-01-15T07:30:58;14.02;;;6.68;;
58681;SDS011;44460;40.162;18.294;2023-01-15T07:33:24;13.00;;;7.43;;
58681;SDS011;44460;40.162;18.294;2023-01-15T07:35:49;13.40;;;7.32;;
58681;SDS011;44460;40.162;18.294;2023-01-15T07:38:14;13.43;;;6.40;;
58681;SDS011;44460;40.162;18.294;2023-01-15T07:40:40;13.65;;;7.82;;
58681;SDS011;44460;40.162;18.294;2023-01-15T07:43:05;12.75;;;6.70;;
58681;SDS011;44460;40.162;18.294;2023-01-15T07:45:49;11.63;;;6.72;;
58681;SDS011;44460;40.162;18.294;2023-01-15T07:48:33;17.05;;;7.10;;
58681;SDS011;44460;40.162;18.294;2023-01-15T07:51:17;18.83;;;7.30;;
58681;SDS011;44460;40.162;18.294;2023-01-15T07:53:42;10.88;;;6.60;;
58681;SDS011;44460;40.162;18.294;2023-01-15T07:56:07;11.10;;;6.95;;
58681;SDS011;44460;40.162;18.294;2023-01-15T07:58:33;12.52;;;6.80;;
58681;SDS011;44460;40.162;18.294;2023-01-15T08:00:59;14.73;;;7.30;;
58681;SDS011;44460;40.162;18.294;2023-01-15T08:03:24;18.98;;;9.27;;
58681;SDS011;44460;40.162;18.294;2023-01-15T08:05:49;13.85;;;8.48;;
58681;SDS011;44460;40.162;18.294;2023-01-15T08:08:16;16.40;;;9.98;;
58681;SDS011;44460;40.162;18.294;2023-01-15T08:10:42;12.80;;;6.93;;
58681;SDS011;44460;40.162;18.294;2023-01-15T08:13:26;16.45;;;9.50;;
58681;SDS011;44460;40.162;18.294;2023-01-15T08:16:09;18.35;;;11.00;;
58681;SDS011;44460;40.162;18.294;2023-01-15T08:18:36;21.85;;;13.45;;
58681;SDS011;44460;40.162;18.294;2023-01-15T08:21:01;28.95;;;15.27;;
58681;SDS011;44460;40.162;18.294;2023-01-15T08:23:27;21.20;;;11.20;;
58681;SDS011;44460;40.162;18.294;2023-01-15T08:25:52;14.00;;;7.97;;
58681;SDS011;44460;40.162;18.294;2023-01-15T08:28:18;13.48;;;8.68;;
58681;SDS011;44460;40.162;18.294;2023-01-15T08:30:43;13.68;;;8.20;;
58681;SDS011;44460;40.162;18.294;2023-01-15T08:33:08;13.93;;;7.00;;
58681;SDS011;44460;40.162;18.294;2023-01-15T08:35:34;12.10;;;6.82;;
58681;SDS011;44460;40.162;18.294;2023-01-15T08:38:03;13.88;;;6.50;;
58681;SDS011;44460;40.162;18.294;2023-01-15T08:40:29;14.60;;;6.00;;
58681;SDS011;44460;40.162;18.294;2023-01-15T08:42:55;13.75;;;6.65;;
58681;SDS011;44460;40.162;18.294;2023-01-15T08:45:20;18.67;;;6.75;;
58681;SDS011;44460;40.162;18.294;2023-01-15T08:47:46;11.23;;;6.15;;
58681;SDS011;44460;40.162;18.294;2023-01-15T08:50:11;10.52;;;5.97;;
58681;SDS011;44460;40.162;18.294;2023-01-15T08:52:36;15.20;;;7.28;;
58681;SDS011;44460;40.162;18.294;2023-01-15T08:55:02;10.57;;;5.97;;
58681;SDS011;44460;40.162;18.294;2023-01-15T08:57:28;13.65;;;7.00;;
58681;SDS011;44460;40.162;18.294;2023-01-15T08:59:53;10.95;;;6.88;;
58681;SDS011;44460;40.162;18.294;2023-01-15T09:02:19;12.18;;;6.07;;
58681;SDS011;44460;40.162;18.294;2023-01-15T09:04:44;10.65;;;5.45;;
58681;SDS011;44460;40.162;18.294;2023-01-15T09:07:10;11.20;;;5.72;;
58681;SDS011;44460;40.162;18.294;2023-01-15T09:09:36;15.02;;;6.15;;
58681;SDS011;44460;40.162;18.294;2023-01-15T09:12:02;10.57;;;5.90;;
58681;SDS011;44460;40.162;18.294;2023-01-15T09:14:27;10.73;;;5.63;;
58681;SDS011;44460;40.162;18.294;2023-01-15T09:16:52;9.75;;;5.68;;
58681;SDS011;44460;40.162;18.294;2023-01-15T09:19:18;12.02;;;5.55;;
58681;SDS011;44460;40.162;18.294;2023-01-15T09:21:43;11.13;;;6.00;;
58681;SDS011;44460;40.162;18.294;2023-01-15T09:24:09;11.10;;;5.93;;
58681;SDS011;44460;40.162;18.294;2023-01-15T09:26:35;7.95;;;5.28;;
58681;SDS011;44460;40.162;18.294;2023-01-15T09:29:01;12.63;;;7.22;;
58681;SDS011;44460;40.162;18.294;2023-01-15T09:31:27;12.27;;;7.85;;
58681;SDS011;44460;40.162;18.294;2023-01-15T09:33:52;10.02;;;5.95;;
58681;SDS011;44460;40.162;18.294;2023-01-15T09:36:23;11.82;;;6.18;;
58681;SDS011;44460;40.162;18.294;2023-01-15T09:38:49;9.52;;;5.05;;
58681;SDS011;44460;40.162;18.294;2023-01-15T09:41:14;9.70;;;4.78;;
58681;SDS011;44460;40.162;18.294;2023-01-15T09:44:02;11.52;;;5.93;;
58681;SDS011;44460;40.162;18.294;2023-01-15T09:56:58;11.02;;;5.28;;
58681;SDS011;44460;40.162;18.294;2023-01-15T09:59:37;12.32;;;5.57;;
58681;SDS011;44460;40.162;18.294;2023-01-15T10:02:09;11.63;;;5.70;;
58681;SDS011;44460;40.162;18.294;2023-01-15T10:04:37;12.07;;;6.25;;
58681;SDS011;44460;40.162;18.294;2023-01-15T10:07:15;11.60;;;5.38;;
58681;SDS011;44460;40.162;18.294;2023-01-15T10:09:42;12.05;;;5.43;;
58681;SDS011;44460;40.162;18.294;2023-01-15T10:12:20;9.32;;;4.63;;
58681;SDS011;44460;40.162;18.294;2023-01-15T10:15:14;8.55;;;4.00;;
58681;SDS011;44460;40.162;18.294;2023-01-15T10:17:48;7.68;;;4.07;;
58681;SDS011;44460;40.162;18.294;2023-01-15T10:23:24;9.63;;;5.13;;
58681;SDS011;44460;40.162;18.294;2023-01-15T10:25:31;11.73;;;4.95;;
58681;SDS011;44460;40.162;18.294;2023-01-15T10:28:00;8.07;;;4.22;;
58681;SDS011;44460;40.162;18.294;2023-01-15T10:30:41;8.43;;;4.35;;
58681;SDS011;44460;40.162;18.294;2023-01-15T10:33:27;8.43;;;4.75;;
58681;SDS011;44460;40.162;18.294;2023-01-15T10:36:01;7.05;;;3.83;;
58681;SDS011;44460;40.162;18.294;2023-01-15T10:46:18;8.40;;;4.68;;
58681;SDS011;44460;40.162;18.294;2023-01-15T10:54:04;10.38;;;3.88;;
58681;SDS011;44460;40.162;18.294;2023-01-15T10:56:33;9.75;;;4.70;;
58681;SDS011;44460;40.162;18.294;2023-01-15T10:59:05;10.93;;;4.72;;
58681;SDS011;44460;40.162;18.294;2023-01-15T11:01:36;8.30;;;4.30;;
58681;SDS011;44460;40.162;18.294;2023-01-15T11:04:02;9.70;;;5.63;;
58681;SDS011;44460;40.162;18.294;2023-01-15T11:06:30;8.27;;;4.75;;
58681;SDS011;44460;40.162;18.294;2023-01-15T11:08:56;15.63;;;8.07;;
58681;SDS011;44460;40.162;18.294;2023-01-15T11:14:08;10.23;;;5.68;;
58681;SDS011;44460;40.162;18.294;2023-01-15T11:16:51;11.02;;;6.75;;
58681;SDS011;44460;40.162;18.294;2023-01-15T11:19:39;11.70;;;4.82;;
58681;SDS011;44460;40.162;18.294;2023-01-15T11:22:09;11.45;;;5.85;;
58681;SDS011;44460;40.162;18.294;2023-01-15T11:24:36;10.15;;;4.95;;
58681;SDS011;44460;40.162;18.294;2023-01-15T11:27:01;8.48;;;5.50;;
58681;SDS011;44460;40.162;18.294;2023-01-15T11:29:30;25.95;;;5.30;;
58681;SDS011;44460;40.162;18.294;2023-01-15T11:31:56;17.17;;;6.45;;
58681;SDS011;44460;40.162;18.294;2023-01-15T11:34:21;14.35;;;5.15;;
58681;SDS011;44460;40.162;18.294;2023-01-15T11:36:48;9.82;;;4.28;;
58681;SDS011;44460;40.162;18.294;2023-01-15T11:39:25;10.73;;;5.25;;
58681;SDS011;44460;40.162;18.294;2023-01-15T11:42:02;14.10;;;5.20;;
58681;SDS011;44460;40.162;18.294;2023-01-15T11:44:53;10.77;;;6.32;;
58681;SDS011;44460;40.162;18.294;2023-01-15T11:47:37;36.22;;;16.45;;
58681;SDS011;44460;40.162;18.294;2023-01-15T11:50:21;21.83;;;12.80;;
58681;SDS011;44460;40.162;18.294;2023-01-15T11:53:06;8.55;;;4.72;;
58681;SDS011;44460;40.162;18.294;2023-01-15T11:55:33;10.65;;;4.57;;
58681;SDS011;44460;40.162;18.294;2023-01-15T11:57:58;14.02;;;4.63;;
58681;SDS011;44460;40.162;18.294;2023-01-15T12:00:26;10.35;;;5.50;;
58681;SDS011;44460;40.162;18.294;2023-01-15T12:02:53;10.13;;;4.72;;
58681;SDS011;44460;40.162;18.294;2023-01-15T12:05:23;13.95;;;5.28;;
58681;SDS011;44460;40.162;18.294;2023-01-15T12:07:50;10.50;;;4.28;;
58681;SDS011;44460;40.162;18.294;2023-01-15T12:12:49;11.15;;;4.70;;
58681;SDS011;44460;40.162;18.294;2023-01-15T12:17:49;18.88;;;5.22;;
58681;SDS011;44460;40.162;18.294;2023-01-15T12:30:20;7.40;;;3.92;;
58681;SDS011;44460;40.162;18.294;2023-01-15T12:35:44;7.88;;;4.43;;
58681;SDS011;44460;40.162;18.294;2023-01-15T12:38:19;8.38;;;3.78;;
58681;SDS011;44460;40.162;18.294;2023-01-15T12:41:29;9.43;;;4.30;;
58681;SDS011;44460;40.162;18.294;2023-01-15T12:43:34;11.63;;;4.15;;
58681;SDS011;44460;40.162;18.294;2023-01-15T12:46:21;6.25;;;3.28;;
58681;SDS011;44460;40.162;18.294;2023-01-15T12:49:08;6.43;;;3.63;;
58681;SDS011;44460;40.162;18.294;2023-01-15T12:51:55;10.73;;;5.13;;
58681;SDS011;44460;40.162;18.294;2023-01-15T12:54:27;7.45;;;4.03;;
58681;SDS011;44460;40.162;18.294;2023-01-15T12:57:08;6.93;;;3.30;;
58681;SDS011;44460;40.162;18.294;2023-01-15T12:59:38;7.47;;;3.90;;
58681;SDS011;44460;40.162;18.294;2023-01-15T13:05:03;9.07;;;3.85;;
58681;SDS011;44460;40.162;18.294;2023-01-15T13:07:33;7.63;;;3.65;;
58681;SDS011;44460;40.162;18.294;2023-01-15T13:12:34;7.50;;;3.85;;
58681;SDS011;44460;40.162;18.294;2023-01-15T13:15:00;6.05;;;3.10;;
58681;SDS011;44460;40.162;18.294;2023-01-15T13:17:43;8.98;;;3.63;;
58681;SDS011;44460;40.162;18.294;2023-01-15T13:30:37;12.70;;;6.55;;
58681;SDS011;44460;40.162;18.294;2023-01-15T13:36:08;14.15;;;8.07;;
58681;SDS011;44460;40.162;18.294;2023-01-15T13:38:37;9.45;;;4.45;;
58681;SDS011;44460;40.162;18.294;2023-01-15T13:41:05;8.35;;;3.45;;
58681;SDS011;44460;40.162;18.294;2023-01-15T13:43:40;9.07;;;4.80;;
58681;SDS011;44460;40.162;18.294;2023-01-15T13:46:08;7.85;;;4.22;;
58681;SDS011;44460;40.162;18.294;2023-01-15T13:48:44;9.27;;;4.00;;
58681;SDS011;44460;40.162;18.294;2023-01-15T13:51:22;9.05;;;3.53;;
58681;SDS011;44460;40.162;18.294;2023-01-15T13:53:49;11.27;;;3.87;;
58681;SDS011;44460;40.162;18.294;2023-01-15T13:56:24;5.97;;;3.13;;
58681;SDS011;44460;40.162;18.294;2023-01-15T13:58:51;7.25;;;3.22;;
58681;SDS011;44460;40.162;18.294;2023-01-15T14:06:34;8.40;;;4.85;;
58681;SDS011;44460;40.162;18.294;2023-01-15T14:09:00;7.05;;;3.72;;
58681;SDS011;44460;40.162;18.294;2023-01-15T14:26:54;17.08;;;9.82;;
58681;SDS011;44460;40.162;18.294;2023-01-15T14:34:53;19.08;;;9.80;;
58681;SDS011;44460;40.162;18.294;2023-01-15T14:37:21;25.70;;;10.98;;
58681;SDS011;44460;40.162;18.294;2023-01-15T14:45:07;14.15;;;7.68;;
58681;SDS011;44460;40.162;18.294;2023-01-15T14:47:52;14.80;;;7.40;;
58681;SDS011;44460;40.162;18.294;2023-01-15T14:52:50;10.65;;;5.65;;
58681;SDS011;44460;40.162;18.294;2023-01-15T14:55:16;11.63;;;4.82;;
58681;SDS011;44460;40.162;18.294;2023-01-15T14:57:43;11.20;;;7.68;;
58681;SDS011;44460;40.162;18.294;2023-01-15T15:00:13;13.20;;;7.60;;
58681;SDS011;44460;40.162;18.294;2023-01-15T15:02:40;12.52;;;8.20;;
58681;SDS011;44460;40.162;18.294;2023-01-15T15:05:11;14.02;;;8.02;;
58681;SDS011;44460;40.162;18.294;2023-01-15T15:07:44;27.38;;;15.80;;
58681;SDS011;44460;40.162;18.294;2023-01-15T15:15:17;9.55;;;5.53;;
58681;SDS011;44460;40.162;18.294;2023-01-15T15:20:23;13.93;;;9.25;;
58681;SDS011;44460;40.162;18.294;2023-01-15T15:22:50;12.88;;;5.45;;
58681;SDS011;44460;40.162;18.294;2023-01-15T15:25:21;9.27;;;5.65;;
58681;SDS011;44460;40.162;18.294;2023-01-15T15:27:47;8.55;;;4.93;;
58681;SDS011;44460;40.162;18.294;2023-01-15T15:30:13;11.52;;;5.35;;
58681;SDS011;44460;40.162;18.294;2023-01-15T15:32:41;9.77;;;5.97;;
58681;SDS011;44460;40.162;18.294;2023-01-15T15:35:24;14.53;;;7.87;;
58681;SDS011;44460;40.162;18.294;2023-01-15T15:37:50;16.58;;;12.35;;
58681;SDS011;44460;40.162;18.294;2023-01-15T15:40:16;49.05;;;28.27;;
58681;SDS011;44460;40.162;18.294;2023-01-15T15:42:46;45.70;;;27.88;;
58681;SDS011;44460;40.162;18.294;2023-01-15T15:45:32;37.70;;;19.10;;
58681;SDS011;44460;40.162;18.294;2023-01-15T15:48:17;37.75;;;23.35;;
58681;SDS011;44460;40.162;18.294;2023-01-15T15:51:04;32.58;;;22.65;;
58681;SDS011;44460;40.162;18.294;2023-01-15T15:53:30;28.73;;;18.70;;
58681;SDS011;44460;40.162;18.294;2023-01-15T15:55:56;41.08;;;26.83;;
58681;SDS011;44460;40.162;18.294;2023-01-15T16:00:54;29.05;;;18.63;;
58681;SDS011;44460;40.162;18.294;2023-01-15T16:03:25;29.63;;;18.55;;
58681;SDS011;44460;40.162;18.294;2023-01-15T16:05:58;41.83;;;24.27;;
58681;SDS011;44460;40.162;18.294;2023-01-15T16:08:24;59.40;;;34.72;;
58681;SDS011;44460;40.162;18.294;2023-01-15T16:10:58;38.25;;;24.73;;
58681;SDS011;44460;40.162;18.294;2023-01-15T16:13:34;36.22;;;23.95;;
58681;SDS011;44460;40.162;18.294;2023-01-15T16:16:00;40.95;;;25.38;;
58681;SDS011;44460;40.162;18.294;2023-01-15T16:18:37;41.55;;;26.40;;
58681;SDS011;44460;40.162;18.294;2023-01-15T16:21:09;121.72;;;68.85;;
58681;SDS011;44460;40.162;18.294;2023-01-15T16:23:36;276.70;;;171.23;;
58681;SDS011;44460;40.162;18.294;2023-01-15T16:28:34;77.72;;;56.92;;
58681;SDS011;44460;40.162;18.294;2023-01-15T16:31:00;45.25;;;31.50;;
58681;SDS011;44460;40.162;18.294;2023-01-15T16:33:29;45.83;;;32.15;;
58681;SDS011;44460;40.162;18.294;2023-01-15T16:35:55;46.15;;;30.65;;
58681;SDS011;44460;40.162;18.294;2023-01-15T16:38:22;32.15;;;23.25;;
58681;SDS011;44460;40.162;18.294;2023-01-15T16:40:48;53.53;;;31.90;;
58681;SDS011;44460;40.162;18.294;2023-01-15T16:43:14;43.17;;;30.90;;
58681;SDS011;44460;40.162;18.294;2023-01-15T16:48:29;34.67;;;24.10;;
58681;SDS011;44460;40.162;18.294;2023-01-15T16:51:44;29.63;;;19.55;;